Time;durP1;ratioP1;P1;durP2;ratioP2;P2;SDS_P1;SDS_P2;PMS_P1;PMS_P2;Temp;Humidity;BMP_temperature;BMP_pressure;BME280_temperature;BME280_humidity;BME280_pressure;Samples;Min_cycle;Max_cycle;Signal;HPM_P1;HPM_P2
2021/03/08 00:02:11;;;;;;;31.33;17.73;;;;;;;;;;5048870;28;20515;-68
2021/03/08 00:04:37;;;;;;;28.45;16.20;;;;;;;;;;5031931;28;20053;-67
2021/03/08 00:07:03;;;;;;;28.17;16.98;;;;;;;;;;5032555;28;20385;-68
2021/03/08 00:09:29;;;;;;;32.45;17.75;;;;;;;;;;5033218;28;20103;-68
2021/03/08 00:11:56;;;;;;;30.40;17.65;;;;;;;;;;5015161;28;20107;-68
2021/03/08 00:14:22;;;;;;;30.85;17.45;;;;;;;;;;5031721;28;20138;-68
2021/03/08 00:16:48;;;;;;;35.55;17.90;;;;;;;;;;5031334;28;20050;-68
2021/03/08 00:19:14;;;;;;;32.40;18.02;;;;;;;;;;5048610;28;20077;-68
2021/03/08 00:21:40;;;;;;;29.80;17.40;;;;;;;;;;5033044;28;20053;-68
2021/03/08 00:24:06;;;;;;;29.05;16.77;;;;;;;;;;5031784;28;20088;-68
2021/03/08 00:26:32;;;;;;;29.40;16.23;;;;;;;;;;5031240;28;20053;-67
2021/03/08 00:29:14;;;;;;;27.15;17.15;;;;;;;;;;5033205;28;20095;-67
2021/03/08 00:31:40;;;;;;;36.00;16.92;;;;;;;;;;5031506;28;20428;-68
2021/03/08 00:34:06;;;;;;;28.45;16.67;;;;;;;;;;5047193;28;20140;-68
2021/03/08 00:36:32;;;;;;;34.92;16.75;;;;;;;;;;5067479;28;20049;-68
2021/03/08 00:38:58;;;;;;;31.17;17.20;;;;;;;;;;5052897;28;20041;-68
2021/03/08 00:41:24;;;;;;;30.02;16.15;;;;;;;;;;5052643;28;20045;-68
2021/03/08 00:43:51;;;;;;;30.60;16.90;;;;;;;;;;5068039;28;20049;-68
2021/03/08 00:46:17;;;;;;;32.97;18.15;;;;;;;;;;5052076;28;20099;-68
2021/03/08 00:48:43;;;;;;;28.98;16.77;;;;;;;;;;5051474;28;20045;-68
2021/03/08 00:51:09;;;;;;;30.27;17.05;;;;;;;;;;5052667;28;20427;-68
2021/03/08 00:53:35;;;;;;;30.10;17.35;;;;;;;;;;5051321;28;20057;-68
2021/03/08 00:56:01;;;;;;;28.73;16.38;;;;;;;;;;5050562;28;20044;-68
2021/03/08 00:58:27;;;;;;;31.35;17.27;;;;;;;;;;5052417;28;20056;-68
2021/03/08 01:00:54;;;;;;;31.98;18.20;;;;;;;;;;5051228;28;20056;-69
2021/03/08 01:03:20;;;;;;;33.88;18.30;;;;;;;;;;5049249;28;20577;-68
2021/03/08 01:05:46;;;;;;;31.05;18.23;;;;;;;;;;5047576;28;20053;-68
2021/03/08 01:08:12;;;;;;;29.88;17.60;;;;;;;;;;5032288;28;20084;-68
2021/03/08 01:10:38;;;;;;;28.05;16.73;;;;;;;;;;5031158;28;20054;-68
2021/03/08 01:13:04;;;;;;;31.55;17.98;;;;;;;;;;5032397;28;20049;-68
2021/03/08 01:15:30;;;;;;;27.58;16.98;;;;;;;;;;5031087;28;20057;-68
2021/03/08 01:17:57;;;;;;;34.72;18.58;;;;;;;;;;5052167;28;20640;-68
2021/03/08 01:20:23;;;;;;;33.10;18.48;;;;;;;;;;5052035;28;20122;-69
2021/03/08 01:22:49;;;;;;;30.73;17.90;;;;;;;;;;5050576;28;20426;-68
2021/03/08 01:25:17;;;;;;;30.70;17.58;;;;;;;;;;5050111;28;20045;-69
2021/03/08 01:27:43;;;;;;;31.98;16.27;;;;;;;;;;5050372;28;20098;-69
2021/03/08 01:30:11;;;;;;;33.50;16.98;;;;;;;;;;5050705;28;20469;-67
2021/03/08 01:32:37;;;;;;;31.27;16.75;;;;;;;;;;5050505;28;20056;-68
2021/03/08 01:35:04;;;;;;;29.73;16.63;;;;;;;;;;5066816;28;20075;-68
2021/03/08 01:37:31;;;;;;;31.00;17.08;;;;;;;;;;5051260;28;20103;-67
2021/03/08 01:39:57;;;;;;;32.78;18.40;;;;;;;;;;5047071;28;20061;-68
2021/03/08 01:42:24;;;;;;;30.17;17.08;;;;;;;;;;5014156;28;20451;-68
2021/03/08 01:44:50;;;;;;;38.53;17.73;;;;;;;;;;5046961;28;20081;-68
2021/03/08 01:47:16;;;;;;;30.73;18.25;;;;;;;;;;5029799;28;20124;-68
2021/03/08 01:49:42;;;;;;;32.88;19.30;;;;;;;;;;5031650;28;20045;-68
2021/03/08 01:52:11;;;;;;;35.22;18.63;;;;;;;;;;5046860;28;20507;-68
2021/03/08 01:54:38;;;;;;;28.92;16.35;;;;;;;;;;5046728;28;20489;-68
2021/03/08 01:57:04;;;;;;;31.30;17.83;;;;;;;;;;5029833;28;20115;-68
2021/03/08 01:59:30;;;;;;;34.50;17.35;;;;;;;;;;5030431;28;20424;-69
2021/03/08 02:02:03;;;;;;;;;;;;;;;;;;5031035;28;20061;-69
2021/03/08 02:04:29;;;;;;;30.38;17.38;;;;;;;;;;5030071;28;20431;-68
2021/03/08 02:06:55;;;;;;;32.22;18.17;;;;;;;;;;5046232;28;20103;-68
2021/03/08 02:09:21;;;;;;;33.63;18.08;;;;;;;;;;5046778;28;20099;-68
2021/03/08 02:11:51;;;;;;;30.83;17.20;;;;;;;;;;5031338;28;20106;-68
2021/03/08 02:14:48;;;;;;;30.50;18.02;;;;;;;;;;5030251;28;20467;-68
2021/03/08 02:17:21;;;;;;;31.55;17.75;;;;;;;;;;5040519;28;20274;-67
2021/03/08 02:19:53;;;;;;;32.08;18.45;;;;;;;;;;5039500;28;20081;-68
2021/03/08 02:22:55;;;;;;;34.90;17.90;;;;;;;;;;5031202;28;20095;-68
2021/03/08 02:25:48;;;;;;;33.72;17.23;;;;;;;;;;5046041;28;20049;-68
2021/03/08 02:28:59;;;;;;;37.30;18.50;;;;;;;;;;5031223;28;20135;-68
2021/03/08 02:31:25;;;;;;;34.97;17.23;;;;;;;;;;5029985;28;20045;-67
2021/03/08 02:33:58;;;;;;;33.55;18.17;;;;;;;;;;5029811;28;20053;-68
2021/03/08 02:36:34;;;;;;;33.05;19.08;;;;;;;;;;5047434;28;20475;-68
2021/03/08 02:39:14;;;;;;;32.60;18.42;;;;;;;;;;5050568;28;20095;-68
2021/03/08 02:41:41;;;;;;;33.35;19.15;;;;;;;;;;5050312;28;20049;-68
2021/03/08 02:44:09;;;;;;;36.08;19.80;;;;;;;;;;5037437;28;20102;-69
2021/03/08 02:46:37;;;;;;;34.40;18.23;;;;;;;;;;5033063;28;20089;-68
2021/03/08 02:49:06;;;;;;;32.15;18.65;;;;;;;;;;5033921;28;20064;-68
2021/03/08 02:51:34;;;;;;;31.58;17.77;;;;;;;;;;5033885;28;20512;-67
2021/03/08 02:54:00;;;;;;;30.15;17.70;;;;;;;;;;5050159;28;20134;-68
2021/03/08 02:56:28;;;;;;;33.15;17.65;;;;;;;;;;5033081;28;20049;-68
2021/03/08 02:58:54;;;;;;;30.80;17.92;;;;;;;;;;5033814;28;20080;-68
2021/03/08 03:01:20;;;;;;;35.15;18.98;;;;;;;;;;5033499;28;20454;-67
2021/03/08 03:03:51;;;;;;;31.38;18.25;;;;;;;;;;5032708;28;20048;-67
2021/03/08 03:06:18;;;;;;;31.63;17.20;;;;;;;;;;5052890;28;20056;-69
2021/03/08 03:08:44;;;;;;;30.33;16.75;;;;;;;;;;5053354;28;20466;-68
2021/03/08 03:11:11;;;;;;;33.35;17.35;;;;;;;;;;5053173;28;20549;-68
2021/03/08 03:13:37;;;;;;;31.05;17.15;;;;;;;;;;5053227;28;20088;-68
2021/03/08 03:16:04;;;;;;;29.80;17.13;;;;;;;;;;5069083;28;20471;-68
2021/03/08 03:18:31;;;;;;;28.38;16.92;;;;;;;;;;5069622;28;20127;-67
2021/03/08 03:20:57;;;;;;;34.35;17.65;;;;;;;;;;5053068;28;20393;-68
2021/03/08 03:23:24;;;;;;;30.15;17.55;;;;;;;;;;5053049;28;20045;-68
2021/03/08 03:25:50;;;;;;;30.55;17.27;;;;;;;;;;5052374;28;20084;-69
2021/03/08 03:28:16;;;;;;;32.13;17.65;;;;;;;;;;5052887;28;20557;-68
2021/03/08 03:30:42;;;;;;;31.60;17.67;;;;;;;;;;5036436;28;20056;-68
2021/03/08 03:33:08;;;;;;;34.17;18.63;;;;;;;;;;5052625;28;20049;-68
2021/03/08 03:35:35;;;;;;;34.40;18.42;;;;;;;;;;5052197;28;20124;-68
2021/03/08 03:38:01;;;;;;;36.38;17.88;;;;;;;;;;5069361;28;20049;-68
2021/03/08 03:40:27;;;;;;;34.88;18.48;;;;;;;;;;5052575;28;20504;-68
2021/03/08 03:42:54;;;;;;;30.55;16.90;;;;;;;;;;5069129;28;20053;-68
2021/03/08 03:45:22;;;;;;;34.72;17.45;;;;;;;;;;5068604;28;20053;-68
2021/03/08 03:47:49;;;;;;;29.45;16.75;;;;;;;;;;5069187;28;20045;-68
2021/03/08 03:50:18;;;;;;;36.00;18.88;;;;;;;;;;5052441;28;20045;-67
2021/03/08 03:52:44;;;;;;;32.30;17.85;;;;;;;;;;5048832;28;20107;-68
2021/03/08 03:55:12;;;;;;;36.55;17.00;;;;;;;;;;5048725;28;20487;-68
2021/03/08 03:57:49;;;;;;;31.52;17.58;;;;;;;;;;5048658;28;20099;-68
2021/03/08 04:00:21;;;;;;;37.08;17.20;;;;;;;;;;5033008;28;20049;-67
2021/03/08 04:02:49;;;;;;;32.90;17.73;;;;;;;;;;5016167;28;20475;-68
2021/03/08 04:05:20;;;;;;;35.65;19.30;;;;;;;;;;5015971;28;20049;-68
2021/03/08 04:07:46;;;;;;;30.70;17.08;;;;;;;;;;5015930;28;20103;-68
2021/03/08 04:10:12;;;;;;;37.40;20.02;;;;;;;;;;5032249;28;20095;-68
2021/03/08 04:12:41;;;;;;;33.67;18.95;;;;;;;;;;5032158;28;20135;-67
2021/03/08 04:15:08;;;;;;;32.70;17.90;;;;;;;;;;5015822;28;20508;-68
2021/03/08 04:17:35;;;;;;;36.97;19.25;;;;;;;;;;5033074;28;20045;-67
2021/03/08 04:20:04;;;;;;;38.25;19.02;;;;;;;;;;5032192;28;20053;-68
2021/03/08 04:22:31;;;;;;;33.50;18.60;;;;;;;;;;5032038;28;20510;-68
2021/03/08 04:24:57;;;;;;;36.53;19.23;;;;;;;;;;5015639;28;20053;-68
2021/03/08 04:27:23;;;;;;;32.20;17.75;;;;;;;;;;5031115;28;20057;-68
2021/03/08 04:29:49;;;;;;;29.48;17.95;;;;;;;;;;5051844;28;20530;-68
2021/03/08 04:32:17;;;;;;;36.40;20.27;;;;;;;;;;5051886;28;20079;-67
2021/03/08 04:34:43;;;;;;;37.53;18.85;;;;;;;;;;5066895;23;20072;-71
2021/03/08 04:37:12;;;;;;;35.10;18.13;;;;;;;;;;5072271;28;20048;-70
2021/03/08 04:39:39;;;;;;;33.40;17.92;;;;;;;;;;5051223;28;20051;-69
2021/03/08 04:42:08;;;;;;;31.52;17.70;;;;;;;;;;5018778;28;20053;-70
2021/03/08 04:44:35;;;;;;;38.75;20.63;;;;;;;;;;5018519;28;20048;-70
2021/03/08 04:47:04;;;;;;;34.30;18.45;;;;;;;;;;5034489;28;20053;-69
2021/03/08 04:49:34;;;;;;;34.35;18.75;;;;;;;;;;5052650;28;20056;-70
2021/03/08 04:52:01;;;;;;;30.90;16.90;;;;;;;;;;5051362;28;20566;-69
2021/03/08 04:54:27;;;;;;;38.92;19.67;;;;;;;;;;5051183;28;20107;-69
2021/03/08 04:56:54;;;;;;;36.53;21.35;;;;;;;;;;5050877;28;20467;-70
2021/03/08 04:59:21;;;;;;;32.92;18.90;;;;;;;;;;5050560;28;20041;-71
2021/03/08 05:01:47;;;;;;;33.22;18.75;;;;;;;;;;5051363;28;20088;-70
2021/03/08 05:04:14;;;;;;;35.45;19.25;;;;;;;;;;5051131;28;20044;-71
2021/03/08 05:06:41;;;;;;;34.88;19.73;;;;;;;;;;5050735;28;20561;-71
2021/03/08 05:09:09;;;;;;;33.90;17.83;;;;;;;;;;5052033;28;20454;-70
2021/03/08 05:11:36;;;;;;;31.95;17.33;;;;;;;;;;5051135;28;20450;-71
2021/03/08 05:14:11;;;;;;;36.80;20.17;;;;;;;;;;5050916;28;20049;-70
2021/03/08 05:16:46;;;;;;;33.67;17.55;;;;;;;;;;5051525;28;20095;-70
2021/03/08 05:19:13;;;;;;;35.85;18.52;;;;;;;;;;5050905;28;20099;-70
2021/03/08 05:21:39;;;;;;;35.17;18.92;;;;;;;;;;5034347;28;20049;-70
2021/03/08 05:24:05;;;;;;;34.08;19.80;;;;;;;;;;5050759;28;20076;-70
2021/03/08 05:26:32;;;;;;;37.10;19.00;;;;;;;;;;5033566;28;20432;-70
2021/03/08 05:28:59;;;;;;;36.38;20.60;;;;;;;;;;5034289;28;20147;-70
2021/03/08 05:31:28;;;;;;;31.63;18.83;;;;;;;;;;5034171;28;20094;-70
2021/03/08 05:33:55;;;;;;;35.38;19.83;;;;;;;;;;5034255;28;20087;-72
2021/03/08 05:36:21;;;;;;;34.22;19.55;;;;;;;;;;5033731;28;20045;-70
2021/03/08 05:38:48;;;;;;;33.65;18.48;;;;;;;;;;5051585;28;20052;-70
2021/03/08 05:41:35;;;;;;;35.00;19.08;;;;;;;;;;5050620;28;20049;-70
2021/03/08 05:44:04;;;;;;;35.10;17.27;;;;;;;;;;5051686;28;20080;-72
2021/03/08 05:46:36;;;;;;;31.42;17.63;;;;;;;;;;4969272;28;22247;-70
2021/03/08 05:49:21;;;;;;;34.83;17.95;;;;;;;;;;5051577;28;20045;-72
2021/03/08 05:52:05;;;;;;;36.75;19.23;;;;;;;;;;5051406;28;20128;-70
2021/03/08 05:54:49;;;;;;;34.15;18.33;;;;;;;;;;5033771;28;20130;-71
2021/03/08 05:57:49;;;;;;;32.38;18.42;;;;;;;;;;5050836;28;20053;-71
2021/03/08 06:00:25;;;;;;;34.15;18.35;;;;;;;;;;5033838;28;20053;-71
2021/03/08 06:02:55;;;;;;;37.55;18.35;;;;;;;;;;5033715;28;20174;-72
2021/03/08 06:06:04;;;;;;;33.70;17.73;;;;;;;;;;5047836;28;20045;-72
2021/03/08 06:08:49;;;;;;;46.60;18.75;;;;;;;;;;5030271;28;20469;-71
2021/03/08 06:11:15;;;;;;;28.20;16.30;;;;;;;;;;5046938;28;20072;-73
2021/03/08 06:13:53;;;;;;;32.28;17.52;;;;;;;;;;5037831;28;20113;-72
2021/03/08 06:16:35;;;;;;;30.60;15.50;;;;;;;;;;5054781;28;20061;-74
2021/03/08 06:19:04;;;;;;;30.88;16.52;;;;;;;;;;5055703;28;20122;-72
2021/03/08 06:21:34;;;;;;;30.38;16.15;;;;;;;;;;5055424;28;20045;-72
2021/03/08 06:24:00;;;;;;;32.28;16.95;;;;;;;;;;5055013;28;20052;-72
2021/03/08 06:26:27;;;;;;;32.65;16.38;;;;;;;;;;5036833;28;20052;-71
2021/03/08 06:28:53;;;;;;;26.50;15.75;;;;;;;;;;5054058;28;20045;-71
2021/03/08 06:31:19;;;;;;;28.05;16.08;;;;;;;;;;5037364;28;20510;-71
2021/03/08 06:33:53;;;;;;;;;;;;;;;;;;5013357;28;20053;-72
2021/03/08 06:36:20;;;;;;;31.40;15.45;;;;;;;;;;5034482;28;19925;-72
2021/03/08 06:38:46;;;;;;;29.90;16.30;;;;;;;;;;5034187;28;20046;-71
2021/03/08 06:41:12;;;;;;;32.42;16.75;;;;;;;;;;5021666;28;20048;-72
2021/03/08 06:43:38;;;;;;;34.80;17.45;;;;;;;;;;5055039;28;20080;-68
2021/03/08 06:46:04;;;;;;;30.83;17.13;;;;;;;;;;5053537;28;20102;-73
2021/03/08 06:48:30;;;;;;;31.58;17.23;;;;;;;;;;5052125;28;20056;-71
2021/03/08 06:51:05;;;;;;;30.85;16.27;;;;;;;;;;5035945;28;20526;-71
2021/03/08 06:53:32;;;;;;;30.75;16.35;;;;;;;;;;5037998;28;20136;-70
2021/03/08 06:56:11;;;;;;;34.50;16.75;;;;;;;;;;5037600;28;20114;-70
2021/03/08 06:58:38;;;;;;;27.67;15.55;;;;;;;;;;5024638;28;20115;-71
2021/03/08 07:01:13;;;;;;;33.20;17.27;;;;;;;;;;5040737;28;20049;-70
2021/03/08 07:03:40;;;;;;;33.88;18.70;;;;;;;;;;5027193;28;20609;-70
2021/03/08 07:06:14;;;;;;;27.65;16.70;;;;;;;;;;5021584;28;20060;-72
2021/03/08 07:08:40;;;;;;;28.98;16.88;;;;;;;;;;5042153;28;20072;-70
2021/03/08 07:11:33;;;;;;;31.88;17.45;;;;;;;;;;5038834;28;20092;-71
2021/03/08 07:14:00;;;;;;;30.65;16.50;;;;;;;;;;5040724;28;20504;-70
2021/03/08 07:16:36;;;;;;;31.58;16.92;;;;;;;;;;5036277;28;20049;-70
2021/03/08 07:19:02;;;;;;;32.05;16.60;;;;;;;;;;5041326;28;20529;-72
2021/03/08 07:21:28;;;;;;;29.48;16.80;;;;;;;;;;5041562;28;20265;-70
2021/03/08 07:24:07;;;;;;;28.88;15.75;;;;;;;;;;5040723;28;20080;-70
2021/03/08 07:26:34;;;;;;;31.10;16.00;;;;;;;;;;5008707;28;20328;-70
2021/03/08 07:29:11;;;;;;;29.65;17.25;;;;;;;;;;5036480;28;20056;-70
2021/03/08 07:31:38;;;;;;;42.05;19.52;;;;;;;;;;5021251;28;20057;-70
2021/03/08 07:34:08;;;;;;;30.83;17.70;;;;;;;;;;5037441;28;20049;-70
2021/03/08 07:36:41;;;;;;;28.55;17.40;;;;;;;;;;5036150;28;20111;-70
2021/03/08 07:39:16;;;;;;;27.15;16.98;;;;;;;;;;5022051;28;20119;-71
2021/03/08 07:42:09;;;;;;;31.98;17.73;;;;;;;;;;5038025;28;20145;-72
2021/03/08 07:44:35;;;;;;;31.02;17.88;;;;;;;;;;5037148;28;20146;-71
2021/03/08 07:47:20;;;;;;;36.72;19.20;;;;;;;;;;5006416;28;20053;-71
2021/03/08 07:49:46;;;;;;;27.65;17.48;;;;;;;;;;5024033;28;20053;-70
2021/03/08 07:52:14;;;;;;;29.92;17.02;;;;;;;;;;5039276;28;20049;-71
2021/03/08 07:55:10;;;;;;;26.55;17.42;;;;;;;;;;5007195;28;20106;-72
2021/03/08 07:57:36;;;;;;;27.65;18.05;;;;;;;;;;5026540;28;20527;-73
2021/03/08 08:00:02;;;;;;;28.50;16.55;;;;;;;;;;5022226;28;20578;-71
2021/03/08 08:02:28;;;;;;;28.55;17.63;;;;;;;;;;5039260;28;20095;-73
2021/03/08 08:05:03;;;;;;;29.63;17.67;;;;;;;;;;5037880;28;20055;-71
2021/03/08 08:07:30;;;;;;;31.08;17.75;;;;;;;;;;5041927;28;20067;-72
2021/03/08 08:09:57;;;;;;;29.33;17.38;;;;;;;;;;5037136;28;20119;-71
2021/03/08 08:12:23;;;;;;;25.15;16.50;;;;;;;;;;5004487;28;20053;-72
2021/03/08 08:14:50;;;;;;;23.77;15.50;;;;;;;;;;5013996;28;20598;-69
2021/03/08 08:17:19;;;;;;;29.73;17.02;;;;;;;;;;5035984;28;20076;-70
2021/03/08 08:19:46;;;;;;;22.58;14.07;;;;;;;;;;5008915;28;20132;-70
2021/03/08 08:22:16;;;;;;;20.77;14.18;;;;;;;;;;5023475;28;20392;-69
2021/03/08 08:24:42;;;;;;;22.88;15.32;;;;;;;;;;5028566;28;20392;-69
2021/03/08 08:27:08;;;;;;;23.08;14.82;;;;;;;;;;5023966;28;20518;-73
2021/03/08 08:29:34;;;;;;;26.25;15.35;;;;;;;;;;5006062;28;20481;-70
2021/03/08 08:32:04;;;;;;;19.73;13.63;;;;;;;;;;5004452;28;20045;-72
2021/03/08 08:34:37;;;;;;;20.33;13.20;;;;;;;;;;5021152;28;20362;-71
2021/03/08 08:37:11;;;;;;;23.00;15.17;;;;;;;;;;5036582;28;20531;-72
2021/03/08 08:39:39;;;;;;;20.52;13.93;;;;;;;;;;5022473;28;20296;-73
2021/03/08 08:42:15;;;;;;;18.52;13.52;;;;;;;;;;5018259;28;20443;-72
2021/03/08 08:44:41;;;;;;;20.75;13.50;;;;;;;;;;5036580;28;20115;-74
2021/03/08 08:47:31;;;;;;;22.02;14.55;;;;;;;;;;5038139;28;20079;-75
2021/03/08 08:50:07;;;;;;;19.30;12.88;;;;;;;;;;5038760;28;20110;-71
2021/03/08 08:52:50;;;;;;;18.92;13.00;;;;;;;;;;5013362;28;20174;-71
2021/03/08 08:55:22;;;;;;;16.70;12.18;;;;;;;;;;5003530;28;20094;-72
2021/03/08 08:58:20;;;;;;;17.65;12.68;;;;;;;;;;5024523;28;20111;-70
2021/03/08 09:01:33;;;;;;;17.88;12.57;;;;;;;;;;5042794;28;20057;-71
2021/03/08 09:04:09;;;;;;;19.88;12.85;;;;;;;;;;4998949;28;20088;-73
2021/03/08 09:06:43;;;;;;;18.50;12.80;;;;;;;;;;5035973;28;20092;-73
2021/03/08 09:09:15;;;;;;;19.52;12.15;;;;;;;;;;5040567;28;20140;-71
2021/03/08 09:11:52;;;;;;;13.45;10.98;;;;;;;;;;5035896;28;20061;-71
2021/03/08 09:14:35;;;;;;;13.95;11.43;;;;;;;;;;5038102;28;20057;-70
2021/03/08 09:17:26;;;;;;;16.23;10.90;;;;;;;;;;5035603;28;20115;-69
2021/03/08 09:19:55;;;;;;;18.25;11.15;;;;;;;;;;5036223;28;20102;-72
2021/03/08 09:22:21;;;;;;;15.55;11.02;;;;;;;;;;5037625;28;20073;-70
2021/03/08 09:24:48;;;;;;;17.80;11.70;;;;;;;;;;5036611;28;20053;-69
2021/03/08 09:27:34;;;;;;;15.55;11.98;;;;;;;;;;5034020;28;20057;-69
2021/03/08 09:30:03;;;;;;;19.05;11.45;;;;;;;;;;5034430;28;20057;-72
2021/03/08 09:32:30;;;;;;;15.93;11.20;;;;;;;;;;5036168;28;20110;-68
2021/03/08 09:35:04;;;;;;;16.70;11.07;;;;;;;;;;5033594;28;20049;-70
2021/03/08 09:37:30;;;;;;;15.75;11.60;;;;;;;;;;5022833;28;20080;-69
2021/03/08 09:39:57;;;;;;;15.35;12.02;;;;;;;;;;5036020;28;20049;-71
2021/03/08 09:42:23;;;;;;;16.27;12.02;;;;;;;;;;5034135;28;20457;-70
2021/03/08 09:44:49;;;;;;;15.98;11.05;;;;;;;;;;5021363;28;20110;-70
2021/03/08 09:47:16;;;;;;;15.35;10.15;;;;;;;;;;5040972;28;20076;-73
2021/03/08 09:49:46;;;;;;;15.27;10.68;;;;;;;;;;5034466;28;20080;-69
2021/03/08 09:52:14;;;;;;;12.20;9.70;;;;;;;;;;5036492;28;20136;-73
2021/03/08 09:54:47;;;;;;;15.75;10.55;;;;;;;;;;5001767;28;20764;-77
2021/03/08 09:57:37;;;;;;;13.75;10.00;;;;;;;;;;5037297;28;20526;-70
2021/03/08 10:00:08;;;;;;;15.00;10.88;;;;;;;;;;5033309;28;20095;-73
2021/03/08 10:02:34;;;;;;;15.75;10.73;;;;;;;;;;5038877;28;20114;-70
2021/03/08 10:05:01;;;;;;;16.63;11.60;;;;;;;;;;5035527;28;20045;-70
2021/03/08 10:07:27;;;;;;;14.20;10.50;;;;;;;;;;5042242;28;20103;-70
2021/03/08 10:10:07;;;;;;;14.65;10.77;;;;;;;;;;5037070;28;20115;-73
2021/03/08 10:12:33;;;;;;;15.43;11.02;;;;;;;;;;5021188;28;20045;-73
2021/03/08 10:15:01;;;;;;;14.13;10.98;;;;;;;;;;5021875;28;20057;-74
2021/03/08 10:17:27;;;;;;;15.30;10.82;;;;;;;;;;5004403;28;20124;-71
2021/03/08 10:19:58;;;;;;;14.73;10.90;;;;;;;;;;5040488;28;20527;-74
2021/03/08 10:22:38;;;;;;;15.20;10.65;;;;;;;;;;5036483;28;20053;-70
2021/03/08 10:25:24;;;;;;;12.60;9.98;;;;;;;;;;5035520;28;20045;-70
2021/03/08 10:28:03;;;;;;;12.82;10.77;;;;;;;;;;5004179;28;20502;-67
2021/03/08 10:30:32;;;;;;;14.68;10.45;;;;;;;;;;5039382;28;20041;-71
2021/03/08 10:33:03;;;;;;;14.70;10.07;;;;;;;;;;5006790;28;20515;-69
2021/03/08 10:35:31;;;;;;;13.15;9.45;;;;;;;;;;5059151;23;20128;-68
2021/03/08 10:38:23;;;;;;;11.38;9.02;;;;;;;;;;5046213;28;20132;-72
2021/03/08 10:40:49;;;;;;;13.80;10.27;;;;;;;;;;5047963;28;20047;-69
2021/03/08 10:43:16;;;;;;;12.60;9.27;;;;;;;;;;5048507;28;20102;-73
2021/03/08 10:45:46;;;;;;;12.60;9.48;;;;;;;;;;5046217;28;20052;-69
2021/03/08 10:48:13;;;;;;;11.50;8.77;;;;;;;;;;5031088;28;20052;-71
2021/03/08 10:50:50;;;;;;;10.93;7.88;;;;;;;;;;5048071;28;20076;-76
2021/03/08 10:53:42;;;;;;;11.30;7.97;;;;;;;;;;5048503;28;20652;-73
2021/03/08 10:56:19;;;;;;;10.70;7.43;;;;;;;;;;5030550;28;20057;-71
2021/03/08 10:58:45;;;;;;;12.23;7.35;;;;;;;;;;5066957;28;20041;-73
2021/03/08 11:01:11;;;;;;;9.48;7.68;;;;;;;;;;5049046;28;20083;-72
2021/03/08 11:03:40;;;;;;;10.05;7.47;;;;;;;;;;5047318;28;20647;-72
2021/03/08 11:06:11;;;;;;;9.93;7.22;;;;;;;;;;5050672;28;20055;-72
2021/03/08 11:08:39;;;;;;;12.30;7.80;;;;;;;;;;5052196;28;20061;-73
2021/03/08 11:11:19;;;;;;;11.05;6.97;;;;;;;;;;5052168;28;20088;-73
2021/03/08 11:13:47;;;;;;;9.73;7.80;;;;;;;;;;5052372;28;20522;-71
2021/03/08 11:16:14;;;;;;;9.55;7.85;;;;;;;;;;5050591;28;20527;-73
2021/03/08 11:18:41;;;;;;;12.63;8.02;;;;;;;;;;5050300;28;20072;-73
2021/03/08 11:21:25;;;;;;;9.18;7.75;;;;;;;;;;5059661;28;20053;-72
2021/03/08 11:23:53;;;;;;;10.65;8.05;;;;;;;;;;5050697;28;20538;-72
2021/03/08 11:26:21;;;;;;;10.25;7.28;;;;;;;;;;5048129;28;20095;-73
2021/03/08 11:28:47;;;;;;;10.35;8.15;;;;;;;;;;5050869;28;20388;-74
2021/03/08 11:31:25;;;;;;;10.73;8.63;;;;;;;;;;5049003;28;20633;-74
2021/03/08 11:33:55;;;;;;;10.65;7.90;;;;;;;;;;5049213;28;20389;-74
2021/03/08 11:36:33;;;;;;;13.75;8.15;;;;;;;;;;5047823;28;20145;-73
2021/03/08 11:39:00;;;;;;;8.75;7.57;;;;;;;;;;5048850;28;20442;-73
2021/03/08 11:41:26;;;;;;;10.45;8.05;;;;;;;;;;5045401;28;20049;-73
2021/03/08 11:43:53;;;;;;;10.75;7.53;;;;;;;;;;5048254;28;20425;-73
2021/03/08 11:46:19;;;;;;;13.90;7.95;;;;;;;;;;5056765;28;20068;-70
2021/03/08 11:48:45;;;;;;;11.20;8.70;;;;;;;;;;5053943;28;20077;-72
2021/03/08 11:51:12;;;;;;;12.10;8.85;;;;;;;;;;5050530;28;20061;-73
2021/03/08 11:53:38;;;;;;;11.20;8.30;;;;;;;;;;5050258;28;20045;-74
2021/03/08 11:56:05;;;;;;;9.55;8.38;;;;;;;;;;5048653;28;20500;-74
2021/03/08 11:58:31;;;;;;;9.07;7.93;;;;;;;;;;5049864;28;20048;-73
2021/03/08 12:00:59;;;;;;;12.10;8.80;;;;;;;;;;5032931;28;20088;-73
2021/03/08 12:03:46;;;;;;;11.13;8.93;;;;;;;;;;5051975;28;20083;-74
2021/03/08 12:06:13;;;;;;;9.90;8.27;;;;;;;;;;5023321;28;20045;-75
2021/03/08 12:09:00;;;;;;;11.88;9.73;;;;;;;;;;5035243;28;20049;-74
2021/03/08 12:11:27;;;;;;;13.68;9.90;;;;;;;;;;5017426;28;20049;-75
2021/03/08 12:13:53;;;;;;;12.55;9.68;;;;;;;;;;5050847;28;20048;-73
2021/03/08 12:16:19;;;;;;;10.27;8.60;;;;;;;;;;5050602;28;20416;-73
2021/03/08 12:18:46;;;;;;;11.05;7.85;;;;;;;;;;5051395;28;20052;-73
2021/03/08 12:21:15;;;;;;;11.85;8.25;;;;;;;;;;5016006;28;20053;-75
2021/03/08 12:23:42;;;;;;;11.10;8.45;;;;;;;;;;5035013;28;20052;-73
2021/03/08 12:26:11;;;;;;;9.77;8.10;;;;;;;;;;5018822;28;20077;-72
2021/03/08 12:28:39;;;;;;;11.10;8.15;;;;;;;;;;5015040;28;20061;-71
2021/03/08 12:31:14;;;;;;;8.75;7.40;;;;;;;;;;5054821;28;20056;-74
2021/03/08 12:33:59;;;;;;;8.88;7.60;;;;;;;;;;5050914;28;20053;-71
2021/03/08 12:36:41;;;;;;;10.25;7.55;;;;;;;;;;5049261;28;20056;-72
2021/03/08 12:39:09;;;;;;;9.60;6.78;;;;;;;;;;5023116;28;20538;-75
2021/03/08 12:41:38;;;;;;;11.35;8.23;;;;;;;;;;5014911;28;20134;-74
2021/03/08 12:44:07;;;;;;;10.73;8.45;;;;;;;;;;5049302;28;20172;-74
2021/03/08 12:46:33;;;;;;;9.80;7.90;;;;;;;;;;5051170;28;20084;-74
2021/03/08 12:49:01;;;;;;;7.72;6.93;;;;;;;;;;5051900;28;20059;-75
2021/03/08 12:51:27;;;;;;;9.48;6.25;;;;;;;;;;5051124;28;20519;-73
2021/03/08 12:53:53;;;;;;;7.47;6.20;;;;;;;;;;5034597;28;20449;-73
2021/03/08 12:56:19;;;;;;;7.68;6.25;;;;;;;;;;5050401;28;20041;-73
2021/03/08 12:58:45;;;;;;;8.98;7.22;;;;;;;;;;5050581;28;20057;-73
2021/03/08 13:01:11;;;;;;;7.93;6.40;;;;;;;;;;5033200;28;20110;-74
2021/03/08 13:03:39;;;;;;;8.15;6.53;;;;;;;;;;5049372;28;20049;-74
2021/03/08 13:06:06;;;;;;;7.53;6.35;;;;;;;;;;5050352;28;20053;-74
2021/03/08 13:08:32;;;;;;;8.40;6.18;;;;;;;;;;5049191;28;20081;-74
2021/03/08 13:10:58;;;;;;;6.88;6.18;;;;;;;;;;5050697;28;20049;-73
2021/03/08 13:13:24;;;;;;;7.05;6.35;;;;;;;;;;5050323;28;20091;-74
2021/03/08 13:15:50;;;;;;;8.57;6.22;;;;;;;;;;5048939;28;20573;-74
2021/03/08 13:18:17;;;;;;;6.63;5.97;;;;;;;;;;5050492;28;20045;-74
2021/03/08 13:20:44;;;;;;;7.35;6.22;;;;;;;;;;5049039;28;20090;-74
2021/03/08 13:23:11;;;;;;;7.72;6.28;;;;;;;;;;5049398;28;20470;-74
2021/03/08 13:25:37;;;;;;;10.35;6.60;;;;;;;;;;5049897;28;20618;-74
2021/03/08 13:28:03;;;;;;;7.47;6.75;;;;;;;;;;5050266;28;20045;-74
2021/03/08 13:30:30;;;;;;;9.48;6.78;;;;;;;;;;5049186;28;20044;-74
2021/03/08 13:32:56;;;;;;;10.23;6.72;;;;;;;;;;5049326;28;20053;-74
2021/03/08 13:35:23;;;;;;;7.50;5.68;;;;;;;;;;5049665;28;20055;-73
2021/03/08 13:37:49;;;;;;;6.55;5.70;;;;;;;;;;5049383;28;20045;-74
2021/03/08 13:40:16;;;;;;;6.63;6.03;;;;;;;;;;5050556;28;20095;-74
2021/03/08 13:42:42;;;;;;;8.10;6.00;;;;;;;;;;5016374;28;20094;-73
2021/03/08 13:45:09;;;;;;;6.70;5.40;;;;;;;;;;5052161;28;20056;-74
2021/03/08 13:47:35;;;;;;;7.78;6.13;;;;;;;;;;5049001;28;20048;-74
2021/03/08 13:50:03;;;;;;;6.55;5.75;;;;;;;;;;5045665;28;20049;-74
2021/03/08 13:52:29;;;;;;;8.15;6.78;;;;;;;;;;5027813;28;20496;-74
2021/03/08 13:54:56;;;;;;;7.10;5.93;;;;;;;;;;5049782;28;20060;-74
2021/03/08 13:57:22;;;;;;;7.63;5.80;;;;;;;;;;5047485;28;20049;-74
2021/03/08 13:59:48;;;;;;;6.90;6.20;;;;;;;;;;5049389;28;20450;-74
2021/03/08 14:02:16;;;;;;;5.85;4.93;;;;;;;;;;5050016;28;20428;-74
2021/03/08 14:04:43;;;;;;;7.43;6.22;;;;;;;;;;5016467;28;20499;-74
2021/03/08 14:07:09;;;;;;;6.65;5.97;;;;;;;;;;5049272;28;20045;-74
2021/03/08 14:09:55;;;;;;;8.50;6.47;;;;;;;;;;5048934;28;20355;-74
2021/03/08 14:12:22;;;;;;;6.55;5.88;;;;;;;;;;5049688;28;20052;-74
2021/03/08 14:14:50;;;;;;;7.75;5.63;;;;;;;;;;5016532;28;20048;-74
2021/03/08 14:17:24;;;;;;;6.00;5.30;;;;;;;;;;5024737;28;20080;-73
2021/03/08 14:19:50;;;;;;;9.57;6.25;;;;;;;;;;5033669;28;20132;-74
2021/03/08 14:22:19;;;;;;;10.25;6.30;;;;;;;;;;5049582;28;20484;-74
2021/03/08 14:24:45;;;;;;;6.70;5.72;;;;;;;;;;5049118;28;20151;-74
2021/03/08 14:27:11;;;;;;;8.32;6.10;;;;;;;;;;5048250;28;20052;-74
2021/03/08 14:29:38;;;;;;;5.80;5.22;;;;;;;;;;5049890;28;20053;-74
2021/03/08 14:32:05;;;;;;;7.35;5.90;;;;;;;;;;5051010;28;20048;-74
2021/03/08 14:34:32;;;;;;;7.55;6.18;;;;;;;;;;5016747;28;20212;-74
2021/03/08 14:36:58;;;;;;;7.35;5.60;;;;;;;;;;5053127;28;20091;-73
2021/03/08 14:39:25;;;;;;;7.25;6.03;;;;;;;;;;5053577;28;20091;-74
2021/03/08 14:41:52;;;;;;;9.43;5.68;;;;;;;;;;5019099;28;20045;-74